Lafayette, Virginia
Current Conditions -  °F | °C
As of 10:55 AM on Thursday 27 Nov 2014 (Local Time) from KBCB Reporting Station
Overcast Overcast  
Wind Chill: 31°   Ceiling: 2700
Heat Index: 37°   Visibility: 10mi
Dew Point: 32°   Wind: 8mph
Humidity: 81%   Direction: 300°WNW
Pressure: 30.07"   Gusts: 18mph
Location:  37.2234°N, 80.2676°W
Report Text: KBCB 271555Z AUTO 30007G16KT 10SM BKN027 BKN033 OVC050 03/00 A3007 RMK AO2
Loading
Personal Weather Stations






























Interactive Weather Map New forecast layout! Learn more

10-Day Weather Forecast

Advertisements
Track Severe Weather on mobile